sensor_id;sensor_type;location;lat;lon;timestamp;temperature;humidity
72128;DHT22;60000;51.030;7.024;2023-01-26T00:02:06;-0.70;90.99
72128;DHT22;60000;51.030;7.024;2023-01-26T00:04:33;-0.73;90.98
72128;DHT22;60000;51.030;7.024;2023-01-26T00:06:59;-0.70;91.00
72128;DHT22;60000;51.030;7.024;2023-01-26T00:09:24;-0.72;90.91
72128;DHT22;60000;51.030;7.024;2023-01-26T00:11:49;-0.72;90.59
72128;DHT22;60000;51.030;7.024;2023-01-26T00:14:15;-0.70;90.93
72128;DHT22;60000;51.030;7.024;2023-01-26T00:16:40;-0.72;90.99
72128;DHT22;60000;51.030;7.024;2023-01-26T00:19:05;-0.73;90.75
72128;DHT22;60000;51.030;7.024;2023-01-26T00:21:31;-0.74;90.41
72128;DHT22;60000;51.030;7.024;2023-01-26T00:23:56;-0.76;90.55
72128;DHT22;60000;51.030;7.024;2023-01-26T00:26:24;-0.79;90.79
72128;DHT22;60000;51.030;7.024;2023-01-26T00:28:50;-0.77;90.74
72128;DHT22;60000;51.030;7.024;2023-01-26T00:31:19;-0.80;90.40
72128;DHT22;60000;51.030;7.024;2023-01-26T00:33:44;-0.82;90.55
72128;DHT22;60000;51.030;7.024;2023-01-26T00:36:11;-0.83;90.33
72128;DHT22;60000;51.030;7.024;2023-01-26T00:38:36;-0.86;90.48
72128;DHT22;60000;51.030;7.024;2023-01-26T00:41:02;-0.90;90.32
72128;DHT22;60000;51.030;7.024;2023-01-26T00:43:27;-0.86;90.28
72128;DHT22;60000;51.030;7.024;2023-01-26T00:49:15;-0.90;90.57
72128;DHT22;60000;51.030;7.024;2023-01-26T00:51:40;-0.90;90.43
72128;DHT22;60000;51.030;7.024;2023-01-26T00:54:05;-0.90;90.38
72128;DHT22;60000;51.030;7.024;2023-01-26T00:56:31;-0.89;90.23
72128;DHT22;60000;51.030;7.024;2023-01-26T00:58:56;-0.90;89.97
72128;DHT22;60000;51.030;7.024;2023-01-26T01:01:21;-0.92;90.06
72128;DHT22;60000;51.030;7.024;2023-01-26T01:03:46;-0.90;90.26
72128;DHT22;60000;51.030;7.024;2023-01-26T01:06:12;-0.92;90.28
72128;DHT22;60000;51.030;7.024;2023-01-26T01:08:37;-0.89;90.50
72128;DHT22;60000;51.030;7.024;2023-01-26T01:11:08;-0.90;89.90
72128;DHT22;60000;51.030;7.024;2023-01-26T01:13:33;-0.92;89.99
72128;DHT22;60000;51.030;7.024;2023-01-26T01:15:59;-0.93;89.91
72128;DHT22;60000;51.030;7.024;2023-01-26T01:25:08;-0.96;89.42
72128;DHT22;60000;51.030;7.024;2023-01-26T01:27:33;-0.94;89.45
72128;DHT22;60000;51.030;7.024;2023-01-26T01:29:58;-0.96;89.61
72128;DHT22;60000;51.030;7.024;2023-01-26T01:32:24;-0.99;89.53
72128;DHT22;60000;51.030;7.024;2023-01-26T01:34:49;-0.94;89.61
72128;DHT22;60000;51.030;7.024;2023-01-26T01:37:16;-0.94;89.50
72128;DHT22;60000;51.030;7.024;2023-01-26T01:39:41;-0.96;89.43
72128;DHT22;60000;51.030;7.024;2023-01-26T01:42:07;-0.93;89.36
72128;DHT22;60000;51.030;7.024;2023-01-26T01:44:36;-0.92;89.41
72128;DHT22;60000;51.030;7.024;2023-01-26T01:47:05;-0.93;89.36
72128;DHT22;60000;51.030;7.024;2023-01-26T01:49:42;-0.93;89.51
72128;DHT22;60000;51.030;7.024;2023-01-26T01:52:11;-0.93;89.41
72128;DHT22;60000;51.030;7.024;2023-01-26T01:54:43;-0.92;89.26
72128;DHT22;60000;51.030;7.024;2023-01-26T01:57:14;-0.92;89.27
72128;DHT22;60000;51.030;7.024;2023-01-26T01:59:45;-0.93;89.21
72128;DHT22;60000;51.030;7.024;2023-01-26T02:02:13;-0.92;88.89
72128;DHT22;60000;51.030;7.024;2023-01-26T02:04:40;-0.89;88.97
72128;DHT22;60000;51.030;7.024;2023-01-26T02:07:05;-0.90;88.91
72128;DHT22;60000;51.030;7.024;2023-01-26T02:09:35;-0.87;89.09
72128;DHT22;60000;51.030;7.024;2023-01-26T02:12:22;-0.84;88.96
72128;DHT22;60000;51.030;7.024;2023-01-26T02:14:49;-0.84;88.92
72128;DHT22;60000;51.030;7.024;2023-01-26T02:17:16;-0.83;88.91
72128;DHT22;60000;51.030;7.024;2023-01-26T02:20:00;-0.82;88.81
72128;DHT22;60000;51.030;7.024;2023-01-26T02:22:40;-0.84;88.49
72128;DHT22;60000;51.030;7.024;2023-01-26T02:25:18;-0.86;88.60
72128;DHT22;60000;51.030;7.024;2023-01-26T02:27:50;-0.86;88.60
72128;DHT22;60000;51.030;7.024;2023-01-26T02:30:16;-0.86;88.40
72128;DHT22;60000;51.030;7.024;2023-01-26T02:32:41;-0.86;88.41
72128;DHT22;60000;51.030;7.024;2023-01-26T02:35:07;-0.90;88.42
72128;DHT22;60000;51.030;7.024;2023-01-26T02:37:32;-0.90;88.71
72128;DHT22;60000;51.030;7.024;2023-01-26T02:40:06;-0.89;88.92
72128;DHT22;60000;51.030;7.024;2023-01-26T02:42:33;-0.86;88.94
72128;DHT22;60000;51.030;7.024;2023-01-26T02:45:07;-0.87;88.88
72128;DHT22;60000;51.030;7.024;2023-01-26T02:47:33;-0.86;88.96
72128;DHT22;60000;51.030;7.024;2023-01-26T02:49:58;-0.86;88.96
72128;DHT22;60000;51.030;7.024;2023-01-26T02:52:27;-0.84;89.15
72128;DHT22;60000;51.030;7.024;2023-01-26T02:54:53;-0.83;89.08
72128;DHT22;60000;51.030;7.024;2023-01-26T02:57:38;-0.86;89.30
72128;DHT22;60000;51.030;7.024;2023-01-26T03:00:09;-0.84;89.24
72128;DHT22;60000;51.030;7.024;2023-01-26T03:02:35;-0.83;89.23
72128;DHT22;60000;51.030;7.024;2023-01-26T03:05:00;-0.87;89.40
72128;DHT22;60000;51.030;7.024;2023-01-26T03:07:26;-0.84;89.46
72128;DHT22;60000;51.030;7.024;2023-01-26T03:09:51;-0.83;89.62
72128;DHT22;60000;51.030;7.024;2023-01-26T03:12:17;-0.83;89.70
72128;DHT22;60000;51.030;7.024;2023-01-26T03:14:42;-0.80;89.93
72128;DHT22;60000;51.030;7.024;2023-01-26T03:17:08;-0.79;89.68
72128;DHT22;60000;51.030;7.024;2023-01-26T03:19:33;-0.79;89.93
72128;DHT22;60000;51.030;7.024;2023-01-26T03:22:17;-0.76;90.03
72128;DHT22;60000;51.030;7.024;2023-01-26T03:25:01;-0.79;90.12
72128;DHT22;60000;51.030;7.024;2023-01-26T03:27:47;-0.77;90.15
72128;DHT22;60000;51.030;7.024;2023-01-26T03:30:15;-0.79;90.06
72128;DHT22;60000;51.030;7.024;2023-01-26T03:32:40;-0.80;90.27
72128;DHT22;60000;51.030;7.024;2023-01-26T03:35:06;-0.80;90.31
72128;DHT22;60000;51.030;7.024;2023-01-26T03:37:34;-0.77;90.46
72128;DHT22;60000;51.030;7.024;2023-01-26T03:40:02;-0.74;90.37
72128;DHT22;60000;51.030;7.024;2023-01-26T03:42:46;-0.74;90.38
72128;DHT22;60000;51.030;7.024;2023-01-26T03:45:30;-0.79;90.20
72128;DHT22;60000;51.030;7.024;2023-01-26T03:48:14;-0.80;90.60
72128;DHT22;60000;51.030;7.024;2023-01-26T03:50:58;-0.80;90.79
72128;DHT22;60000;51.030;7.024;2023-01-26T03:53:42;-0.77;90.88
72128;DHT22;60000;51.030;7.024;2023-01-26T03:56:26;-0.76;90.77
72128;DHT22;60000;51.030;7.024;2023-01-26T03:58:58;-0.80;90.87
72128;DHT22;60000;51.030;7.024;2023-01-26T04:01:35;-0.77;91.11
72128;DHT22;60000;51.030;7.024;2023-01-26T04:04:02;-0.77;91.14
72128;DHT22;60000;51.030;7.024;2023-01-26T04:06:47;-0.76;91.31
72128;DHT22;60000;51.030;7.024;2023-01-26T04:09:32;-0.74;91.47
72128;DHT22;60000;51.030;7.024;2023-01-26T04:11:57;-0.73;91.49
72128;DHT22;60000;51.030;7.024;2023-01-26T04:14:23;-0.74;91.58
72128;DHT22;60000;51.030;7.024;2023-01-26T04:17:07;-0.74;91.66
72128;DHT22;60000;51.030;7.024;2023-01-26T04:19:51;-0.72;91.72
72128;DHT22;60000;51.030;7.024;2023-01-26T04:22:36;-0.72;91.69
72128;DHT22;60000;51.030;7.024;2023-01-26T04:25:11;-0.72;91.80
72128;DHT22;60000;51.030;7.024;2023-01-26T04:27:37;-0.72;91.90
72128;DHT22;60000;51.030;7.024;2023-01-26T04:30:03;-0.70;91.80
72128;DHT22;60000;51.030;7.024;2023-01-26T04:32:29;-0.68;91.87
72128;DHT22;60000;51.030;7.024;2023-01-26T04:34:54;-0.68;91.97
72128;DHT22;60000;51.030;7.024;2023-01-26T04:37:19;-0.66;92.00
72128;DHT22;60000;51.030;7.024;2023-01-26T04:39:45;-0.66;92.05
72128;DHT22;60000;51.030;7.024;2023-01-26T04:42:10;-0.68;91.79
72128;DHT22;60000;51.030;7.024;2023-01-26T04:44:35;-0.68;91.86
72128;DHT22;60000;51.030;7.024;2023-01-26T04:47:01;-0.68;91.90
72128;DHT22;60000;51.030;7.024;2023-01-26T04:49:26;-0.66;92.02
72128;DHT22;60000;51.030;7.024;2023-01-26T04:51:51;-0.66;91.83
72128;DHT22;60000;51.030;7.024;2023-01-26T04:54:17;-0.66;92.07
72128;DHT22;60000;51.030;7.024;2023-01-26T04:56:42;-0.66;92.00
72128;DHT22;60000;51.030;7.024;2023-01-26T04:59:09;-0.65;92.18
72128;DHT22;60000;51.030;7.024;2023-01-26T05:01:35;-0.63;92.16
72128;DHT22;60000;51.030;7.024;2023-01-26T05:04:02;-0.66;92.08
72128;DHT22;60000;51.030;7.024;2023-01-26T05:06:27;-0.65;92.21
72128;DHT22;60000;51.030;7.024;2023-01-26T05:08:54;-0.65;92.26
72128;DHT22;60000;51.030;7.024;2023-01-26T05:11:19;-0.66;91.99
72128;DHT22;60000;51.030;7.024;2023-01-26T05:13:44;-0.68;92.23
72128;DHT22;60000;51.030;7.024;2023-01-26T05:16:11;-0.66;92.41
72128;DHT22;60000;51.030;7.024;2023-01-26T05:18:39;-0.65;92.37
72128;DHT22;60000;51.030;7.024;2023-01-26T05:21:04;-0.66;92.23
72128;DHT22;60000;51.030;7.024;2023-01-26T05:23:29;-0.65;92.45
72128;DHT22;60000;51.030;7.024;2023-01-26T05:25:55;-0.65;92.30
72128;DHT22;60000;51.030;7.024;2023-01-26T05:28:20;-0.65;92.30
72128;DHT22;60000;51.030;7.024;2023-01-26T05:30:46;-0.63;92.18
72128;DHT22;60000;51.030;7.024;2023-01-26T05:33:11;-0.65;92.36
72128;DHT22;60000;51.030;7.024;2023-01-26T05:35:37;-0.68;92.37
72128;DHT22;60000;51.030;7.024;2023-01-26T05:38:02;-0.65;92.49
72128;DHT22;60000;51.030;7.024;2023-01-26T05:40:27;-0.65;92.53
72128;DHT22;60000;51.030;7.024;2023-01-26T05:42:53;-0.68;92.48
72128;DHT22;60000;51.030;7.024;2023-01-26T05:45:20;-0.65;92.50
72128;DHT22;60000;51.030;7.024;2023-01-26T05:47:45;-0.63;92.69
72128;DHT22;60000;51.030;7.024;2023-01-26T05:50:12;-0.62;92.69
72128;DHT22;60000;51.030;7.024;2023-01-26T05:52:37;-0.59;92.59
72128;DHT22;60000;51.030;7.024;2023-01-26T05:55:04;-0.61;92.70
72128;DHT22;60000;51.030;7.024;2023-01-26T05:57:30;-0.58;92.80
72128;DHT22;60000;51.030;7.024;2023-01-26T05:59:55;-0.59;92.75
72128;DHT22;60000;51.030;7.024;2023-01-26T06:02:21;-0.58;92.81
72128;DHT22;60000;51.030;7.024;2023-01-26T06:04:46;-0.53;92.77
72128;DHT22;60000;51.030;7.024;2023-01-26T06:07:11;-0.58;92.70
72128;DHT22;60000;51.030;7.024;2023-01-26T06:09:38;-0.56;92.81
72128;DHT22;60000;51.030;7.024;2023-01-26T06:12:04;-0.56;92.73
72128;DHT22;60000;51.030;7.024;2023-01-26T06:14:30;-0.55;92.88
72128;DHT22;60000;51.030;7.024;2023-01-26T06:16:55;-0.55;92.75
72128;DHT22;60000;51.030;7.024;2023-01-26T06:19:21;-0.56;92.85
72128;DHT22;60000;51.030;7.024;2023-01-26T06:21:46;-0.58;92.83
72128;DHT22;60000;51.030;7.024;2023-01-26T06:24:12;-0.56;92.97
72128;DHT22;60000;51.030;7.024;2023-01-26T06:26:37;-0.58;92.95
72128;DHT22;60000;51.030;7.024;2023-01-26T06:29:03;-0.59;93.08
72128;DHT22;60000;51.030;7.024;2023-01-26T06:31:29;-0.56;93.08
72128;DHT22;60000;51.030;7.024;2023-01-26T06:33:54;-0.56;93.05
72128;DHT22;60000;51.030;7.024;2023-01-26T06:36:20;-0.55;93.22
72128;DHT22;60000;51.030;7.024;2023-01-26T06:38:47;-0.56;93.10
72128;DHT22;60000;51.030;7.024;2023-01-26T06:41:13;-0.56;93.18
72128;DHT22;60000;51.030;7.024;2023-01-26T06:43:39;-0.55;93.40
72128;DHT22;60000;51.030;7.024;2023-01-26T06:46:05;-0.53;93.58
72128;DHT22;60000;51.030;7.024;2023-01-26T06:48:32;-0.51;93.33
72128;DHT22;60000;51.030;7.024;2023-01-26T06:53:57;-0.53;93.41
72128;DHT22;60000;51.030;7.024;2023-01-26T06:56:24;-0.56;93.53
72128;DHT22;60000;51.030;7.024;2023-01-26T06:58:51;-0.52;93.43
72128;DHT22;60000;51.030;7.024;2023-01-26T07:01:20;-0.55;93.51
72128;DHT22;60000;51.030;7.024;2023-01-26T07:03:49;-0.55;93.60
72128;DHT22;60000;51.030;7.024;2023-01-26T07:06:14;-0.55;93.62
72128;DHT22;60000;51.030;7.024;2023-01-26T07:08:40;-0.51;93.86
72128;DHT22;60000;51.030;7.024;2023-01-26T07:11:06;-0.51;93.64
72128;DHT22;60000;51.030;7.024;2023-01-26T07:13:32;-0.49;93.58
72128;DHT22;60000;51.030;7.024;2023-01-26T07:18:27;-0.51;93.53
72128;DHT22;60000;51.030;7.024;2023-01-26T07:20:52;-0.49;93.63
72128;DHT22;60000;51.030;7.024;2023-01-26T07:23:18;-0.48;93.64
72128;DHT22;60000;51.030;7.024;2023-01-26T07:25:43;-0.46;93.45
72128;DHT22;60000;51.030;7.024;2023-01-26T07:28:08;-0.48;93.30
72128;DHT22;60000;51.030;7.024;2023-01-26T07:30:35;-0.45;93.27
72128;DHT22;60000;51.030;7.024;2023-01-26T07:33:00;-0.46;93.31
72128;DHT22;60000;51.030;7.024;2023-01-26T07:35:25;-0.46;93.17
72128;DHT22;60000;51.030;7.024;2023-01-26T07:37:51;-0.45;93.31
72128;DHT22;60000;51.030;7.024;2023-01-26T07:40:16;-0.43;93.29
72128;DHT22;60000;51.030;7.024;2023-01-26T07:42:41;-0.41;93.27
72128;DHT22;60000;51.030;7.024;2023-01-26T07:45:07;-0.39;93.30
72128;DHT22;60000;51.030;7.024;2023-01-26T07:47:32;-0.38;93.30
72128;DHT22;60000;51.030;7.024;2023-01-26T07:50:00;-0.36;93.25
72128;DHT22;60000;51.030;7.024;2023-01-26T07:52:25;-0.36;93.21
72128;DHT22;60000;51.030;7.024;2023-01-26T07:54:50;-0.36;92.99
72128;DHT22;60000;51.030;7.024;2023-01-26T07:57:16;-0.35;93.10
72128;DHT22;60000;51.030;7.024;2023-01-26T07:59:41;-0.34;93.03
72128;DHT22;60000;51.030;7.024;2023-01-26T08:02:08;-0.34;92.89
72128;DHT22;60000;51.030;7.024;2023-01-26T08:04:34;-0.36;92.80
72128;DHT22;60000;51.030;7.024;2023-01-26T08:06:59;-0.34;93.04
72128;DHT22;60000;51.030;7.024;2023-01-26T08:09:25;-0.31;92.93
72128;DHT22;60000;51.030;7.024;2023-01-26T08:11:50;-0.31;93.05
72128;DHT22;60000;51.030;7.024;2023-01-26T08:14:16;-0.28;93.03
72128;DHT22;60000;51.030;7.024;2023-01-26T08:16:41;-0.24;92.98
72128;DHT22;60000;51.030;7.024;2023-01-26T08:19:06;-0.24;92.92
72128;DHT22;60000;51.030;7.024;2023-01-26T08:21:32;-0.19;92.83
72128;DHT22;60000;51.030;7.024;2023-01-26T08:23:57;-0.15;93.02
72128;DHT22;60000;51.030;7.024;2023-01-26T08:26:26;-0.14;92.86
72128;DHT22;60000;51.030;7.024;2023-01-26T08:28:51;-0.13;92.73
72128;DHT22;60000;51.030;7.024;2023-01-26T08:31:19;-0.11;92.71
72128;DHT22;60000;51.030;7.024;2023-01-26T08:33:47;-0.08;92.67
72128;DHT22;60000;51.030;7.024;2023-01-26T08:36:14;-0.10;92.56
72128;DHT22;60000;51.030;7.024;2023-01-26T08:38:41;-0.04;92.79
72128;DHT22;60000;51.030;7.024;2023-01-26T08:41:06;-0.05;92.55
72128;DHT22;60000;51.030;7.024;2023-01-26T08:43:32;-0.01;92.82
72128;DHT22;60000;51.030;7.024;2023-01-26T08:45:58;0.02;92.88
72128;DHT22;60000;51.030;7.024;2023-01-26T08:48:23;0.03;92.87
72128;DHT22;60000;51.030;7.024;2023-01-26T08:50:53;0.06;92.62
72128;DHT22;60000;51.030;7.024;2023-01-26T08:53:18;0.07;92.79
72128;DHT22;60000;51.030;7.024;2023-01-26T08:55:44;0.06;92.51
72128;DHT22;60000;51.030;7.024;2023-01-26T08:58:09;0.09;92.59
72128;DHT22;60000;51.030;7.024;2023-01-26T09:00:34;0.11;92.60
72128;DHT22;60000;51.030;7.024;2023-01-26T09:03:01;0.09;92.49
72128;DHT22;60000;51.030;7.024;2023-01-26T09:05:30;0.10;92.60
72128;DHT22;60000;51.030;7.024;2023-01-26T09:07:56;0.11;92.53
72128;DHT22;60000;51.030;7.024;2023-01-26T09:10:21;0.11;92.55
72128;DHT22;60000;51.030;7.024;2023-01-26T09:12:47;0.11;92.58
72128;DHT22;60000;51.030;7.024;2023-01-26T09:15:12;0.11;92.46
72128;DHT22;60000;51.030;7.024;2023-01-26T09:17:37;0.10;92.53
72128;DHT22;60000;51.030;7.024;2023-01-26T09:20:06;0.13;92.55
72128;DHT22;60000;51.030;7.024;2023-01-26T09:22:32;0.14;92.62
72128;DHT22;60000;51.030;7.024;2023-01-26T09:24:58;0.18;92.65
72128;DHT22;60000;51.030;7.024;2023-01-26T09:27:23;0.18;92.57
72128;DHT22;60000;51.030;7.024;2023-01-26T09:29:48;0.21;92.68
72128;DHT22;60000;51.030;7.024;2023-01-26T09:32:14;0.20;92.52
72128;DHT22;60000;51.030;7.024;2023-01-26T09:34:39;0.23;92.52
72128;DHT22;60000;51.030;7.024;2023-01-26T09:37:07;0.27;92.57
72128;DHT22;60000;51.030;7.024;2023-01-26T09:39:33;0.26;92.54
72128;DHT22;60000;51.030;7.024;2023-01-26T09:42:02;0.27;92.49
72128;DHT22;60000;51.030;7.024;2023-01-26T09:44:31;0.27;92.34
72128;DHT22;60000;51.030;7.024;2023-01-26T09:47:13;0.27;92.24
72128;DHT22;60000;51.030;7.024;2023-01-26T09:50:03;0.28;92.10
72128;DHT22;60000;51.030;7.024;2023-01-26T09:52:36;0.28;92.48
72128;DHT22;60000;51.030;7.024;2023-01-26T09:55:07;0.31;92.41
72128;DHT22;60000;51.030;7.024;2023-01-26T09:57:40;0.30;92.34
72128;DHT22;60000;51.030;7.024;2023-01-26T10:05:41;0.34;92.41
72128;DHT22;60000;51.030;7.024;2023-01-26T10:08:12;0.36;92.46
72128;DHT22;60000;51.030;7.024;2023-01-26T10:11:33;0.38;92.49
72128;DHT22;60000;51.030;7.024;2023-01-26T10:13:33;0.38;92.36
72128;DHT22;60000;51.030;7.024;2023-01-26T10:16:02;0.43;92.61
72128;DHT22;60000;51.030;7.024;2023-01-26T10:18:33;0.47;92.67
72128;DHT22;60000;51.030;7.024;2023-01-26T10:21:01;0.50;92.73
72128;DHT22;60000;51.030;7.024;2023-01-26T10:23:32;0.47;92.60
72128;DHT22;60000;51.030;7.024;2023-01-26T10:26:18;0.54;92.70
72128;DHT22;60000;51.030;7.024;2023-01-26T10:28:47;0.55;92.72
72128;DHT22;60000;51.030;7.024;2023-01-26T10:31:15;0.60;92.68
72128;DHT22;60000;51.030;7.024;2023-01-26T10:33:48;0.60;92.40
72128;DHT22;60000;51.030;7.024;2023-01-26T10:36:15;0.62;92.43
72128;DHT22;60000;51.030;7.024;2023-01-26T10:38:42;0.61;92.38
72128;DHT22;60000;51.030;7.024;2023-01-26T10:43:42;0.65;92.38
72128;DHT22;60000;51.030;7.024;2023-01-26T10:46:41;0.69;92.49
72128;DHT22;60000;51.030;7.024;2023-01-26T10:51:41;0.74;92.47
72128;DHT22;60000;51.030;7.024;2023-01-26T10:54:26;0.72;92.47
72128;DHT22;60000;51.030;7.024;2023-01-26T10:56:57;0.76;92.32
72128;DHT22;60000;51.030;7.024;2023-01-26T11:02:00;0.79;92.41
72128;DHT22;60000;51.030;7.024;2023-01-26T11:04:27;0.74;92.36
72128;DHT22;60000;51.030;7.024;2023-01-26T11:06:52;0.78;92.53
72128;DHT22;60000;51.030;7.024;2023-01-26T11:12:03;0.74;92.33
72128;DHT22;60000;51.030;7.024;2023-01-26T11:14:31;0.76;92.40
72128;DHT22;60000;51.030;7.024;2023-01-26T11:22:05;0.72;92.41
72128;DHT22;60000;51.030;7.024;2023-01-26T11:33:07;0.86;92.25
72128;DHT22;60000;51.030;7.024;2023-01-26T11:35:51;0.89;92.00
72128;DHT22;60000;51.030;7.024;2023-01-26T11:38:30;0.91;92.07
72128;DHT22;60000;51.030;7.024;2023-01-26T11:43:57;0.99;91.83
72128;DHT22;60000;51.030;7.024;2023-01-26T11:49:19;1.00;91.67
72128;DHT22;60000;51.030;7.024;2023-01-26T11:57:40;1.09;91.26
72128;DHT22;60000;51.030;7.024;2023-01-26T12:00:32;1.09;91.20
72128;DHT22;60000;51.030;7.024;2023-01-26T12:03:07;1.07;91.19
72128;DHT22;60000;51.030;7.024;2023-01-26T12:05:49;1.05;90.84
72128;DHT22;60000;51.030;7.024;2023-01-26T12:10:48;1.03;91.23
72128;DHT22;60000;51.030;7.024;2023-01-26T12:16:03;0.99;91.15
72128;DHT22;60000;51.030;7.024;2023-01-26T12:18:38;0.96;91.70
72128;DHT22;60000;51.030;7.024;2023-01-26T12:21:09;0.96;91.89
72128;DHT22;60000;51.030;7.024;2023-01-26T12:23:57;0.96;91.69
72128;DHT22;60000;51.030;7.024;2023-01-26T12:26:25;0.93;91.56
72128;DHT22;60000;51.030;7.024;2023-01-26T12:31:42;0.88;91.85
72128;DHT22;60000;51.030;7.024;2023-01-26T12:34:11;0.89;92.10
72128;DHT22;60000;51.030;7.024;2023-01-26T12:36:47;0.91;92.25
72128;DHT22;60000;51.030;7.024;2023-01-26T12:39:42;0.86;92.25
72128;DHT22;60000;51.030;7.024;2023-01-26T12:45:06;0.91;92.63
72128;DHT22;60000;51.030;7.024;2023-01-26T12:47:40;0.93;92.39
72128;DHT22;60000;51.030;7.024;2023-01-26T12:58:23;1.06;92.35
72128;DHT22;60000;51.030;7.024;2023-01-26T13:03:34;1.13;92.73
72128;DHT22;60000;51.030;7.024;2023-01-26T13:11:00;1.17;92.26
72128;DHT22;60000;51.030;7.024;2023-01-26T13:13:33;1.19;92.32
72128;DHT22;60000;51.030;7.024;2023-01-26T13:18:54;1.23;92.33
72128;DHT22;60000;51.030;7.024;2023-01-26T13:31:52;1.32;91.93
72128;DHT22;60000;51.030;7.024;2023-01-26T13:34:23;1.32;91.99
72128;DHT22;60000;51.030;7.024;2023-01-26T13:36:52;1.30;91.87
72128;DHT22;60000;51.030;7.024;2023-01-26T13:41:51;1.32;91.95
72128;DHT22;60000;51.030;7.024;2023-01-26T13:44:33;1.36;92.25
72128;DHT22;60000;51.030;7.024;2023-01-26T13:47:05;1.35;92.39
72128;DHT22;60000;51.030;7.024;2023-01-26T13:49:39;1.37;92.32
72128;DHT22;60000;51.030;7.024;2023-01-26T13:52:31;1.37;92.29
72128;DHT22;60000;51.030;7.024;2023-01-26T13:54:57;1.39;92.57
72128;DHT22;60000;51.030;7.024;2023-01-26T13:57:25;1.36;92.56
72128;DHT22;60000;51.030;7.024;2023-01-26T13:59:53;1.39;92.63
72128;DHT22;60000;51.030;7.024;2023-01-26T14:02:31;1.37;92.63
72128;DHT22;60000;51.030;7.024;2023-01-26T14:04:59;1.37;92.82
72128;DHT22;60000;51.030;7.024;2023-01-26T14:07:37;1.40;92.88
72128;DHT22;60000;51.030;7.024;2023-01-26T14:10:04;1.43;93.05
72128;DHT22;60000;51.030;7.024;2023-01-26T14:12:33;1.42;92.83
72128;DHT22;60000;51.030;7.024;2023-01-26T14:15:03;1.40;93.15
72128;DHT22;60000;51.030;7.024;2023-01-26T14:17:31;1.44;93.13
72128;DHT22;60000;51.030;7.024;2023-01-26T14:19:58;1.44;93.23
72128;DHT22;60000;51.030;7.024;2023-01-26T14:22:25;1.43;93.36
72128;DHT22;60000;51.030;7.024;2023-01-26T14:24:51;1.46;93.28
72128;DHT22;60000;51.030;7.024;2023-01-26T14:27:30;1.47;93.50
72128;DHT22;60000;51.030;7.024;2023-01-26T14:29:58;1.47;93.35
72128;DHT22;60000;51.030;7.024;2023-01-26T14:32:24;1.47;93.31
72128;DHT22;60000;51.030;7.024;2023-01-26T14:34:55;1.50;93.32
72128;DHT22;60000;51.030;7.024;2023-01-26T14:37:22;1.50;93.40
72128;DHT22;60000;51.030;7.024;2023-01-26T14:39:48;1.51;93.39
72128;DHT22;60000;51.030;7.024;2023-01-26T14:42:16;1.53;93.32
72128;DHT22;60000;51.030;7.024;2023-01-26T14:44:42;1.54;93.44
72128;DHT22;60000;51.030;7.024;2023-01-26T14:47:24;1.54;93.42
72128;DHT22;60000;51.030;7.024;2023-01-26T14:50:05;1.56;93.56
72128;DHT22;60000;51.030;7.024;2023-01-26T14:52:35;1.54;93.60
72128;DHT22;60000;51.030;7.024;2023-01-26T14:55:12;1.57;93.64
72128;DHT22;60000;51.030;7.024;2023-01-26T14:57:39;1.58;93.60
72128;DHT22;60000;51.030;7.024;2023-01-26T15:00:05;1.60;93.65
72128;DHT22;60000;51.030;7.024;2023-01-26T15:02:41;1.61;93.74
72128;DHT22;60000;51.030;7.024;2023-01-26T15:05:17;1.61;93.81
72128;DHT22;60000;51.030;7.024;2023-01-26T15:07:44;1.63;93.67
72128;DHT22;60000;51.030;7.024;2023-01-26T15:10:40;1.63;93.79
72128;DHT22;60000;51.030;7.024;2023-01-26T15:15:39;1.61;93.80
72128;DHT22;60000;51.030;7.024;2023-01-26T15:20:38;1.64;93.91
72128;DHT22;60000;51.030;7.024;2023-01-26T15:23:21;1.65;93.86
72128;DHT22;60000;51.030;7.024;2023-01-26T15:25:47;1.65;93.86
72128;DHT22;60000;51.030;7.024;2023-01-26T15:28:17;1.65;93.98
72128;DHT22;60000;51.030;7.024;2023-01-26T15:30:48;1.65;94.05
72128;DHT22;60000;51.030;7.024;2023-01-26T15:33:46;1.67;94.10
72128;DHT22;60000;51.030;7.024;2023-01-26T15:36:46;1.68;94.14
72128;DHT22;60000;51.030;7.024;2023-01-26T15:39:14;1.65;94.19
72128;DHT22;60000;51.030;7.024;2023-01-26T15:41:41;1.65;94.27
72128;DHT22;60000;51.030;7.024;2023-01-26T15:44:15;1.67;94.17
72128;DHT22;60000;51.030;7.024;2023-01-26T15:46:40;1.68;94.35
72128;DHT22;60000;51.030;7.024;2023-01-26T15:49:06;1.67;94.36
72128;DHT22;60000;51.030;7.024;2023-01-26T15:51:31;1.65;94.35
72128;DHT22;60000;51.030;7.024;2023-01-26T15:53:56;1.68;94.55
72128;DHT22;60000;51.030;7.024;2023-01-26T15:56:22;1.70;94.52
72128;DHT22;60000;51.030;7.024;2023-01-26T15:58:47;1.67;94.55
72128;DHT22;60000;51.030;7.024;2023-01-26T16:01:15;1.70;94.61
72128;DHT22;60000;51.030;7.024;2023-01-26T16:03:42;1.68;94.68
72128;DHT22;60000;51.030;7.024;2023-01-26T16:06:17;1.70;94.73
72128;DHT22;60000;51.030;7.024;2023-01-26T16:08:43;1.70;94.72
72128;DHT22;60000;51.030;7.024;2023-01-26T16:11:10;1.73;94.76
72128;DHT22;60000;51.030;7.024;2023-01-26T16:13:36;1.74;94.81
72128;DHT22;60000;51.030;7.024;2023-01-26T16:16:02;1.78;94.87
72128;DHT22;60000;51.030;7.024;2023-01-26T16:18:27;1.77;94.91
72128;DHT22;60000;51.030;7.024;2023-01-26T16:20:53;1.78;95.03
72128;DHT22;60000;51.030;7.024;2023-01-26T16:23:26;1.81;95.06
72128;DHT22;60000;51.030;7.024;2023-01-26T16:25:52;1.82;95.04
72128;DHT22;60000;51.030;7.024;2023-01-26T16:28:18;1.82;95.02
72128;DHT22;60000;51.030;7.024;2023-01-26T16:30:45;1.84;95.05
72128;DHT22;60000;51.030;7.024;2023-01-26T16:33:12;1.85;95.07
72128;DHT22;60000;51.030;7.024;2023-01-26T16:35:38;1.85;95.05
72128;DHT22;60000;51.030;7.024;2023-01-26T16:38:03;1.87;95.04
72128;DHT22;60000;51.030;7.024;2023-01-26T16:40:31;1.87;95.06
72128;DHT22;60000;51.030;7.024;2023-01-26T16:42:57;1.88;95.05
72128;DHT22;60000;51.030;7.024;2023-01-26T16:45:25;1.88;95.07
72128;DHT22;60000;51.030;7.024;2023-01-26T16:47:53;1.89;95.07
72128;DHT22;60000;51.030;7.024;2023-01-26T16:50:20;1.91;95.13
72128;DHT22;60000;51.030;7.024;2023-01-26T16:52:45;1.91;95.15
72128;DHT22;60000;51.030;7.024;2023-01-26T16:55:12;1.89;95.15
72128;DHT22;60000;51.030;7.024;2023-01-26T16:57:39;1.94;95.16
72128;DHT22;60000;51.030;7.024;2023-01-26T17:00:06;1.97;95.21
72128;DHT22;60000;51.030;7.024;2023-01-26T17:02:33;1.95;95.24
72128;DHT22;60000;51.030;7.024;2023-01-26T17:04:59;1.98;95.23
72128;DHT22;60000;51.030;7.024;2023-01-26T17:07:25;1.98;95.26
72128;DHT22;60000;51.030;7.024;2023-01-26T17:09:50;2.01;95.31
72128;DHT22;60000;51.030;7.024;2023-01-26T17:12:15;2.02;95.32
72128;DHT22;60000;51.030;7.024;2023-01-26T17:14:41;1.99;95.30
72128;DHT22;60000;51.030;7.024;2023-01-26T17:17:08;2.04;95.37
72128;DHT22;60000;51.030;7.024;2023-01-26T17:19:33;2.04;95.38
72128;DHT22;60000;51.030;7.024;2023-01-26T17:21:59;2.06;95.38
72128;DHT22;60000;51.030;7.024;2023-01-26T17:24:24;2.06;95.36
72128;DHT22;60000;51.030;7.024;2023-01-26T17:26:49;2.08;95.34
72128;DHT22;60000;51.030;7.024;2023-01-26T17:29:15;2.06;95.44
72128;DHT22;60000;51.030;7.024;2023-01-26T17:31:40;2.09;95.40
72128;DHT22;60000;51.030;7.024;2023-01-26T17:34:05;2.14;95.45